Sturgeon Bay, WI

8:02 PM CDT on July 29, 2014 (GMT -0500)
Leif Everson Observatory (KWISTURG1) Elev 636 ft | 44.83 °N, 87.34 °W | Change Station

Current weather conditions updated 9 minutes ago

Overcast
Overcast
65.5 °F
Feels Like 65.5 °F
N
0.0
Wind Variable Wind from West
Gusts 0.0 mph

Tomorrow is forecast to be nearly the same temperature as today. Thunderstorms early tomorrow night.

Today
High -- | Low -- °F
--% Chance of Precip.
Yesterday
High -- | Low -- °F
Precip. -- in
5:32 AM 8:19 PM
Waxing Crescent, 8% visible
Pressure 29.96 in
Visibility 10.0 miles
Clouds Few 6000 ft
Scattered Clouds 8000 ft
Overcast 10000 ft
Dew Point 59 °F
Humidity 80%
Rainfall 0.00 in
Snow Depth Not available.
UV 0.0 out of 12
Pollen 7.00 out of 12
Air Quality Not available.
Flu Activity Not available.
METAR KSUE 300055Z AUTO 22005KT 10SM FEW060 SCT080 OVC100 18/14 A2996 RMK AO1

More Conditions Fewer Conditions

Pressure 29.96 in
Visibility 10.0 miles
Clouds Few 6000 ft
Scattered Clouds 8000 ft
Overcast 10000 ft
Dew Point 59 °F
Humidity 80%
Rainfall 0.00 in
Snow Depth Not available.
UV 0.0 out of 12
Pollen 7.00 out of 12
Air Quality Not available.
Flu Activity Not available.
METAR KSUE 300055Z AUTO 22005KT 10SM FEW060 SCT080 OVC100 18/14 A2996 RMK AO1

More Conditions Fewer Conditions

10-Day Weather Forecast

Almanac

Astronomy

Jul. 29, 2014 Rise Set
Actual Time 5:32 AM CDT 8:19 PM CDT
Civil Twilight 4:58 AM CDT 8:53 PM CDT
Nautical Twilight 4:14 AM CDT 9:36 PM CDT
Astronomical Twilight 3:24 AM CDT 10:25 PM CDT
Moon 8:17 AM CDT (7/29) 9:21 PM CDT (7/29)
Length of Visible Light 15h 55m
Length of Day
14h 47m
Tomorrow will be 2m 18s shorter.
Waxing Crescent, 8% of the Moon is Illuminated
Today
Waxing Crescent
Aug 3
First Quarter
Aug 10
Full
Aug 17
Last Quarter
Aug 25
New

Today's Extremes

State Highs State Lows

Community

WunderPhotos

Upload Photos

1,738,939 photos uploaded!

Nearby

Snow Depth

Station Depth Elevation
No new snow has been reported.

Earthquake Activity

City Distance Mag. Time & Date
No recent earthquake activity has been reported nearby.
Minimum magnitude displayed is 2.5.

Coastal Water Temperatures

Place Temperature
No Stations Reporting

Nearby Weather Stations

Station Location Temp. Dew Point Humidity Wind Precip. Elev Updated Type
Leif Everson Observatory, Sturgeon Bay, WI 65.5 °F 59 °F 80% West  at  0.0 mph 0.00 in / hr 636 ft 7:52 PM CDT Normal
Egg Harbor WI, Egg Harbor, WI 63.5 °F 63 °F 97% NE  at  0.0 mph 0.02 in / hr 650 ft 8:01 PM CDT Normal
MARITIME , Oconto, WI 66 °F - - WSW  at  11 mph 0.00 in / hr 582 ft 7:00 PM CDT MADIS
Tyco Fire Protection, Marinette, WI 64.9 °F 61 °F 87% East  at  5.0 mph 0.00 in / hr 617 ft 8:02 PM CDT Normal

Show More Stations Show Fewer Stations